Time;durP1;ratioP1;P1;durP2;ratioP2;P2;SDS_P1;SDS_P2;PMS_P1;PMS_P2;Temp;Humidity;BMP_temperature;BMP_pressure;BME280_temperature;BME280_humidity;BME280_pressure;Samples;Min_cycle;Max_cycle;Signal;HPM_P1;HPM_P2
2023/06/22 00:01:04;;;;;;;;;;;;;;;20.97;97.95;96522.50;5085225;28;19954;-77
2023/06/22 00:03:30;;;;;;;;;;;;;;;20.93;97.78;96518.81;5085092;28;20018;-80
2023/06/22 00:05:56;;;;;;;;;;;;;;;20.91;97.49;96521.75;5085673;28;20000;-78
2023/06/22 00:08:22;;;;;;;;;;;;;;;20.91;97.68;96520.97;5085051;28;19943;-78
2023/06/22 00:10:48;;;;;;;;;;;;;;;20.88;97.79;96525.78;5085048;28;20137;-78
2023/06/22 00:13:14;;;;;;;;;;;;;;;20.88;98.12;96536.44;5085787;28;19940;-78
2023/06/22 00:15:41;;;;;;;;;;;;;;;20.88;97.88;96543.66;5083722;28;20226;-71
2023/06/22 00:18:07;;;;;;;;;;;;;;;20.86;98.79;96530.59;5085717;28;20095;-76
2023/06/22 00:20:36;;;;;;;;;;;;;;;20.86;97.87;96525.25;5084742;28;20305;-75
2023/06/22 00:23:07;;;;;;;;;;;;;;;20.85;98.17;96521.03;5084949;28;20154;-78
2023/06/22 00:25:43;;;;;;;;;;;;;;;20.83;98.36;96522.34;5101217;28;19943;-79
2023/06/22 00:28:09;;;;;;;;;;;;;;;20.81;98.12;96516.50;5084330;28;19949;-80
2023/06/22 00:30:35;;;;;;;;;;;;;;;20.77;98.64;96502.97;5084670;28;19938;-79
2023/06/22 00:33:01;;;;;;;;;;;;;;;20.75;98.65;96513.13;5084613;28;20154;-77
2023/06/22 00:35:30;;;;;;;;;;;;;;;20.72;99.11;96521.66;5084189;28;19941;-71
2023/06/22 00:38:04;;;;;;;;;;;;;;;20.70;98.77;96529.13;5083398;28;19941;-72
2023/06/22 00:40:31;;;;;;;;;;;;;;;20.68;99.29;96520.63;5084865;28;20217;-71
2023/06/22 00:42:57;;;;;;;;;;;;;;;20.65;99.53;96522.00;5103014;28;19967;-71
2023/06/22 00:45:23;;;;;;;;;;;;;;;20.64;100.00;96533.75;5086338;28;19943;-71
2023/06/22 00:47:50;;;;;;;;;;;;;;;20.63;100.00;96553.44;5103781;28;20136;-71
2023/06/22 00:50:18;;;;;;;;;;;;;;;20.58;100.00;96556.19;5103098;28;19940;-81
2023/06/22 00:52:45;;;;;;;;;;;;;;;20.55;100.00;96537.25;5103079;28;19942;-77
2023/06/22 00:55:11;;;;;;;;;;;;;;;20.50;100.00;96546.09;5102866;28;19942;-71
2023/06/22 00:57:37;;;;;;;;;;;;;;;20.47;100.00;96567.94;5102886;28;19940;-70
2023/06/22 01:00:07;;;;;;;;;;;;;;;20.43;100.00;96569.56;5102774;28;19942;-71
2023/06/22 01:02:33;;;;;;;;;;;;;;;20.35;100.00;96548.84;5103130;28;19932;-70
2023/06/22 01:04:59;;;;;;;;;;;;;;;20.31;100.00;96540.63;5102681;28;19944;-70
2023/06/22 01:07:31;;;;;;;;;;;;;;;20.30;100.00;96546.22;5102698;28;20029;-70
2023/06/22 01:09:56;;;;;;;;;;;;;;;20.28;100.00;96549.16;5102897;28;19948;-71
2023/06/22 01:12:22;;;;;;;;;;;;;;;20.26;100.00;96532.66;5102666;28;20027;-70
2023/06/22 01:14:57;;;;;;;;;;;;;;;20.25;100.00;96523.88;5087352;28;19944;-71
2023/06/22 01:17:23;;;;;;;;;;;;;;;20.26;100.00;96522.00;5084325;28;19951;-71
2023/06/22 01:19:55;;;;;;;;;;;;;;;20.26;100.00;96520.16;5083814;28;20145;-71
2023/06/22 01:22:25;;;;;;;;;;;;;;;20.26;100.00;96522.00;5084582;28;19964;-70
2023/06/22 01:24:52;;;;;;;;;;;;;;;20.26;100.00;96522.84;5083848;28;19967;-70
2023/06/22 01:27:21;;;;;;;;;;;;;;;20.25;100.00;96517.78;5083959;28;19946;-72
2023/06/22 01:29:52;;;;;;;;;;;;;;;20.23;100.00;96507.41;5083916;28;19940;-78
2023/06/22 01:32:18;;;;;;;;;;;;;;;20.22;100.00;96513.00;5084151;28;19956;-79
2023/06/22 01:34:46;;;;;;;;;;;;;;;20.22;100.00;96502.34;5083910;28;19941;-79
2023/06/22 01:37:12;;;;;;;;;;;;;;;20.22;100.00;96511.16;5083857;28;19937;-79
2023/06/22 01:39:38;;;;;;;;;;;;;;;20.25;100.00;96510.56;5084366;28;19949;-79
2023/06/22 01:42:05;;;;;;;;;;;;;;;20.26;100.00;96504.19;5084331;28;19941;-79
2023/06/22 01:44:31;;;;;;;;;;;;;;;20.25;100.00;96504.47;5083726;28;20156;-77
2023/06/22 01:46:57;;;;;;;;;;;;;;;20.27;100.00;96523.63;5083775;28;20118;-71
2023/06/22 01:49:23;;;;;;;;;;;;;;;20.26;100.00;96528.16;5083869;28;19943;-71
2023/06/22 01:51:49;;;;;;;;;;;;;;;20.26;100.00;96524.69;5083965;28;19944;-71
2023/06/22 01:54:15;;;;;;;;;;;;;;;20.22;100.00;96516.47;5084275;28;20240;-71
2023/06/22 01:56:41;;;;;;;;;;;;;;;20.18;100.00;96527.94;5082524;28;19976;-72
2023/06/22 01:59:14;;;;;;;;;;;;;;;20.15;100.00;96533.81;5083617;28;19981;-72
2023/06/22 02:01:44;;;;;;;;;;;;;;;20.12;100.00;96527.19;5084145;28;20026;-72
2023/06/22 02:04:16;;;;;;;;;;;;;;;20.11;100.00;96524.78;5085981;28;19952;-80
2023/06/22 02:06:43;;;;;;;;;;;;;;;20.12;100.00;96519.22;5087601;28;19950;-72
2023/06/22 02:09:11;;;;;;;;;;;;;;;20.13;100.00;96527.97;5087414;28;20243;-70
2023/06/22 02:11:40;;;;;;;;;;;;;;;20.15;100.00;96525.84;5088118;28;19936;-70
2023/06/22 02:14:07;;;;;;;;;;;;;;;20.14;100.00;96516.25;5087308;28;19937;-71
2023/06/22 02:16:33;;;;;;;;;;;;;;;20.03;100.00;96515.53;5088057;28;20243;-71
2023/06/22 02:19:03;;;;;;;;;;;;;;;19.91;100.00;96489.25;5087161;28;19933;-70
2023/06/22 02:21:29;;;;;;;;;;;;;;;19.81;100.00;96492.78;5087018;28;19969;-71
2023/06/22 02:23:55;;;;;;;;;;;;;;;19.78;100.00;96519.13;5087054;28;19958;-71
2023/06/22 02:26:21;;;;;;;;;;;;;;;19.81;100.00;96531.91;5085923;28;19949;-70
2023/06/22 02:28:47;;;;;;;;;;;;;;;19.83;100.00;96508.47;5103372;28;19934;-71
2023/06/22 02:31:13;;;;;;;;;;;;;;;19.86;100.00;96510.56;5085757;28;19940;-70
2023/06/22 02:33:38;;;;;;;;;;;;;;;19.87;100.00;96504.97;5086895;28;19939;-70
2023/06/22 02:36:04;;;;;;;;;;;;;;;19.89;100.00;96501.25;5087737;28;19943;-70
2023/06/22 02:38:34;;;;;;;;;;;;;;;19.87;100.00;96507.66;5087389;28;19936;-70
2023/06/22 02:41:01;;;;;;;;;;;;;;;19.91;100.00;96504.41;5087335;28;19937;-70
2023/06/22 02:43:26;;;;;;;;;;;;;;;19.92;100.00;96496.16;5086698;28;20248;-70
2023/06/22 02:45:52;;;;;;;;;;;;;;;19.93;100.00;96499.63;5086751;28;19991;-70
2023/06/22 02:48:18;;;;;;;;;;;;;;;19.94;100.00;96501.22;5085532;28;19940;-70
2023/06/22 02:50:44;;;;;;;;;;;;;;;19.95;100.00;96503.63;5087168;28;19940;-70
2023/06/22 02:53:10;;;;;;;;;;;;;;;19.95;100.00;96492.97;5087405;28;19949;-70
2023/06/22 02:55:36;;;;;;;;;;;;;;;19.94;100.00;96493.22;5086564;28;19984;-70
2023/06/22 02:58:04;;;;;;;;;;;;;;;19.93;100.00;96497.78;5087323;28;19945;-70
2023/06/22 03:00:31;;;;;;;;;;;;;;;19.91;100.00;96502.56;5086417;28;20032;-72
2023/06/22 03:02:57;;;;;;;;;;;;;;;19.91;100.00;96499.91;5086784;28;19935;-79
2023/06/22 03:05:23;;;;;;;;;;;;;;;19.87;100.00;96494.34;5085832;28;19941;-79
2023/06/22 03:07:49;;;;;;;;;;;;;;;19.86;100.00;96497.25;5085198;28;19963;-79
2023/06/22 03:10:15;;;;;;;;;;;;;;;19.83;100.00;96495.16;5086340;28;20229;-79
2023/06/22 03:12:42;;;;;;;;;;;;;;;19.80;100.00;96496.53;5102497;28;20113;-78
2023/06/22 03:15:09;;;;;;;;;;;;;;;19.76;100.00;96495.47;5086382;28;19935;-78
2023/06/22 03:17:35;;;;;;;;;;;;;;;19.73;100.00;96487.25;5102808;28;19946;-70
2023/06/22 03:20:06;;;;;;;;;;;;;;;19.68;100.00;96493.38;5085424;28;19983;-70
2023/06/22 03:22:32;;;;;;;;;;;;;;;19.68;100.00;96488.84;5102383;28;19947;-73
2023/06/22 03:24:57;;;;;;;;;;;;;;;19.69;100.00;96489.63;5085952;28;19991;-73
2023/06/22 03:27:23;;;;;;;;;;;;;;;19.65;100.00;96480.59;5086507;28;19956;-75
2023/06/22 03:29:49;;;;;;;;;;;;;;;19.59;100.00;96489.69;5086450;28;19940;-73
2023/06/22 03:32:15;;;;;;;;;;;;;;;19.52;100.00;96484.66;5084978;28;20006;-74
2023/06/22 03:34:46;;;;;;;;;;;;;;;19.47;100.00;96479.38;5086607;28;19934;-74
2023/06/22 03:37:15;;;;;;;;;;;;;;;19.48;100.00;96475.63;5086154;28;20039;-70
2023/06/22 03:39:41;;;;;;;;;;;;;;;19.52;100.00;96471.34;5085700;28;19939;-71
2023/06/22 03:42:07;;;;;;;;;;;;;;;19.55;100.00;96472.66;5085956;28;19945;-69
2023/06/22 03:44:35;;;;;;;;;;;;;;;19.58;100.00;96478.25;5101342;28;19967;-69
2023/06/22 03:47:02;;;;;;;;;;;;;;;19.58;100.00;96472.91;5085549;28;19932;-70
2023/06/22 03:49:27;;;;;;;;;;;;;;;19.61;100.00;96472.38;5086341;28;19949;-69
2023/06/22 03:51:53;;;;;;;;;;;;;;;19.64;100.00;96479.81;5085461;28;19943;-69
2023/06/22 03:54:19;;;;;;;;;;;;;;;19.67;100.00;96478.47;5086042;28;19939;-70
2023/06/22 03:56:45;;;;;;;;;;;;;;;19.70;100.00;96479.75;5085411;28;19937;-74
2023/06/22 03:59:11;;;;;;;;;;;;;;;19.72;100.00;96473.16;5085370;28;19940;-70
2023/06/22 04:01:37;;;;;;;;;;;;;;;19.72;100.00;96469.69;5085514;28;19940;-69
2023/06/22 04:04:03;;;;;;;;;;;;;;;19.71;100.00;96466.22;5085125;28;19999;-70
2023/06/22 04:06:28;;;;;;;;;;;;;;;19.71;100.00;96465.44;5101016;28;19946;-71
2023/06/22 04:08:54;;;;;;;;;;;;;;;19.73;100.00;96469.41;5085117;28;19944;-70
2023/06/22 04:11:20;;;;;;;;;;;;;;;19.75;100.00;96464.59;5085093;28;19949;-71
2023/06/22 04:13:46;;;;;;;;;;;;;;;19.77;100.00;96461.69;5085042;28;19953;-77
2023/06/22 04:16:12;;;;;;;;;;;;;;;19.79;100.00;96462.19;5085032;28;19941;-69
2023/06/22 04:18:38;;;;;;;;;;;;;;;19.82;100.00;96458.97;5084988;28;19944;-69
2023/06/22 04:21:04;;;;;;;;;;;;;;;19.87;100.00;96461.59;5084900;28;19963;-69
2023/06/22 04:23:30;;;;;;;;;;;;;;;19.89;100.00;96464.00;5085553;28;19963;-69
2023/06/22 04:25:56;;;;;;;;;;;;;;;19.95;100.00;96462.88;5084065;28;19948;-70
2023/06/22 04:28:22;;;;;;;;;;;;;;;20.02;100.00;96448.19;5084815;28;19945;-70
2023/06/22 04:30:48;;;;;;;;;;;;;;;20.08;100.00;96443.63;5100743;28;20002;-71
2023/06/22 04:33:14;;;;;;;;;;;;;;;20.13;100.00;96442.78;5085394;28;19960;-71
2023/06/22 04:35:43;;;;;;;;;;;;;;;20.20;100.00;96436.06;5100470;28;19942;-77
2023/06/22 04:38:10;;;;;;;;;;;;;;;20.20;100.00;96440.56;5085372;28;19939;-77
2023/06/22 04:40:36;;;;;;;;;;;;;;;20.14;100.00;96439.84;5084521;28;19934;-77
2023/06/22 04:43:02;;;;;;;;;;;;;;;20.10;100.00;96446.00;5085322;28;19946;-77
2023/06/22 04:45:29;;;;;;;;;;;;;;;20.06;100.00;96446.56;5084415;28;19958;-77
2023/06/22 04:47:55;;;;;;;;;;;;;;;20.07;100.00;96448.16;5084454;28;19940;-78
2023/06/22 04:50:23;;;;;;;;;;;;;;;20.10;100.00;96446.00;5085251;28;19941;-75
2023/06/22 04:52:50;;;;;;;;;;;;;;;20.10;100.00;96440.69;5084353;28;20132;-76
2023/06/22 04:55:19;;;;;;;;;;;;;;;20.11;100.00;96431.63;5084441;28;19942;-75
2023/06/22 04:57:48;;;;;;;;;;;;;;;20.13;100.00;96440.13;5084312;28;19948;-76
2023/06/22 05:00:18;;;;;;;;;;;;;;;20.14;100.00;96437.19;5084886;28;20120;-75
2023/06/22 05:02:45;;;;;;;;;;;;;;;20.18;100.00;96427.56;5084852;28;19936;-76
2023/06/22 05:05:13;;;;;;;;;;;;;;;20.23;100.00;96427.50;5084617;28;19957;-75
2023/06/22 05:07:42;;;;;;;;;;;;;;;20.31;100.00;96426.13;5085085;28;19938;-76
2023/06/22 05:10:10;;;;;;;;;;;;;;;20.39;100.00;96416.69;5084157;28;20250;-74
2023/06/22 05:12:36;;;;;;;;;;;;;;;20.46;100.00;96419.84;5082476;28;19947;-69
2023/06/22 05:15:02;;;;;;;;;;;;;;;20.57;100.00;96424.00;5083748;28;19940;-70
2023/06/22 05:17:28;;;;;;;;;;;;;;;20.67;100.00;96420.47;5083506;28;20269;-70
2023/06/22 05:19:54;;;;;;;;;;;;;;;20.79;100.00;96412.06;5083890;28;20000;-70
2023/06/22 05:22:20;;;;;;;;;;;;;;;20.90;100.00;96413.53;5083800;28;19949;-69
2023/06/22 05:24:46;;;;;;;;;;;;;;;21.02;100.00;96407.78;5083864;28;20031;-70
2023/06/22 05:27:13;;;;;;;;;;;;;;;21.14;100.00;96402.84;5083652;28;19934;-71
2023/06/22 05:29:39;;;;;;;;;;;;;;;21.27;100.00;96410.16;5084016;28;19937;-70
2023/06/22 05:32:05;;;;;;;;;;;;;;;21.41;99.29;96404.09;5083841;28;19957;-70
2023/06/22 05:34:31;;;;;;;;;;;;;;;21.52;99.17;96410.09;5083885;28;19940;-69
2023/06/22 05:36:58;;;;;;;;;;;;;;;21.58;98.43;96407.06;5085077;28;19935;-70
2023/06/22 05:39:25;;;;;;;;;;;;;;;21.67;98.33;96407.19;5088071;28;20116;-70
2023/06/22 05:41:51;;;;;;;;;;;;;;;21.69;97.83;96408.53;5088510;28;19933;-71
2023/06/22 05:44:17;;;;;;;;;;;;;;;21.67;97.53;96407.19;5088727;28;19957;-70
2023/06/22 05:46:47;;;;;;;;;;;;;;;21.63;98.08;96412.34;5088499;28;19934;-77
2023/06/22 05:49:14;;;;;;;;;;;;;;;21.61;97.70;96413.72;5088753;28;20122;-77
2023/06/22 05:51:40;;;;;;;;;;;;;;;21.62;98.48;96421.41;5087850;28;20216;-77
2023/06/22 05:54:07;;;;;;;;;;;;;;;21.71;98.87;96415.44;5087794;28;20230;-77
2023/06/22 05:56:33;;;;;;;;;;;;;;;21.88;98.32;96407.69;5088248;28;20215;-78
2023/06/22 05:58:59;;;;;;;;;;;;;;;22.10;97.07;96399.84;5087737;28;19942;-77
2023/06/22 06:01:25;;;;;;;;;;;;;;;22.36;95.94;96406.66;5087939;28;19938;-78
2023/06/22 06:03:52;;;;;;;;;;;;;;;22.59;94.89;96386.19;5087488;28;19963;-70
2023/06/22 06:06:28;;;;;;;;;;;;;;;22.80;93.48;96389.25;5088370;28;19939;-71
2023/06/22 06:08:54;;;;;;;;;;;;;;;23.03;92.42;96385.59;5086985;28;19938;-71
2023/06/22 06:11:21;;;;;;;;;;;;;;;23.27;89.81;96381.91;5086227;28;20152;-72
2023/06/22 06:13:46;;;;;;;;;;;;;;;23.53;90.32;96386.69;5086928;28;20042;-72
2023/06/22 06:16:12;;;;;;;;;;;;;;;23.73;88.19;96378.19;5086084;28;20232;-70
2023/06/22 06:18:38;;;;;;;;;;;;;;;23.92;82.24;96340.53;5087447;28;19946;-71
2023/06/22 06:21:04;;;;;;;;;;;;;;;24.00;85.09;96368.47;5087039;28;19970;-70
2023/06/22 06:23:30;;;;;;;;;;;;;;;24.15;84.98;96359.25;5087672;28;19952;-70
2023/06/22 06:25:56;;;;;;;;;;;;;;;24.30;83.04;96356.19;5085801;28;19956;-74
2023/06/22 06:28:22;;;;;;;;;;;;;;;24.47;83.44;96350.09;5087150;28;19978;-74
2023/06/22 06:30:48;;;;;;;;;;;;;;;24.65;82.98;96356.34;5087634;28;19936;-75
2023/06/22 06:33:13;;;;;;;;;;;;;;;24.74;80.43;96343.75;5087001;28;19951;-74
2023/06/22 06:35:39;;;;;;;;;;;;;;;24.89;81.30;96359.41;5087758;28;19937;-75
2023/06/22 06:38:05;;;;;;;;;;;;;;;25.05;78.57;96334.81;5086895;28;19947;-74
2023/06/22 06:40:31;;;;;;;;;;;;;;;25.17;78.15;96336.88;5086858;28;20095;-74
2023/06/22 06:42:57;;;;;;;;;;;;;;;25.28;79.36;96341.66;5086887;28;20224;-77
2023/06/22 06:45:23;;;;;;;;;;;;;;;25.38;79.21;96343.22;5087642;28;20295;-76
2023/06/22 06:47:50;;;;;;;;;;;;;;;25.51;78.00;96328.06;5086638;28;19944;-76
2023/06/22 06:50:16;;;;;;;;;;;;;;;25.51;75.35;96311.94;5086055;28;19941;-76
2023/06/22 06:52:42;;;;;;;;;;;;;;;25.54;75.96;96322.06;5087271;28;19947;-76
2023/06/22 06:55:11;;;;;;;;;;;;;;;25.58;73.96;96312.28;5086859;28;19948;-76
2023/06/22 06:57:40;;;;;;;;;;;;;;;25.65;75.75;96312.56;5086574;28;19942;-76
2023/06/22 07:00:11;;;;;;;;;;;;;;;25.77;75.85;96308.47;5086515;28;19944;-72
2023/06/22 07:02:41;;;;;;;;;;;;;;;25.87;74.35;96300.03;5087046;28;19937;-77
2023/06/22 07:05:07;;;;;;;;;;;;;;;26.01;70.81;96273.78;5086381;28;19959;-77
2023/06/22 07:07:33;;;;;;;;;;;;;;;26.06;71.58;96281.69;5086452;28;20228;-77
2023/06/22 07:09:59;;;;;;;;;;;;;;;26.02;71.09;96278.06;5087179;28;19957;-77
2023/06/22 07:12:25;;;;;;;;;;;;;;;26.05;71.43;96274.72;5086594;28;19985;-77
2023/06/22 07:14:54;;;;;;;;;;;;;;;26.08;72.01;96270.59;5086285;28;19934;-77
2023/06/22 07:17:19;;;;;;;;;;;;;;;26.11;70.60;96262.69;5086314;28;20114;-71
2023/06/22 07:19:45;;;;;;;;;;;;;;;26.12;70.57;96260.78;5086099;28;19980;-75
2023/06/22 07:22:11;;;;;;;;;;;;;;;26.25;71.95;96262.47;5086159;28;19956;-74
2023/06/22 07:24:37;;;;;;;;;;;;;;;26.41;71.47;96257.31;5086067;28;19953;-74
2023/06/22 07:27:03;;;;;;;;;;;;;;;26.50;69.44;96241.13;5101864;28;19934;-74
2023/06/22 07:29:29;;;;;;;;;;;;;;;26.53;72.68;96256.63;5086522;28;20236;-75
2023/06/22 07:31:56;;;;;;;;;;;;;;;26.58;69.42;96226.09;5086444;28;19952;-74
2023/06/22 07:34:22;;;;;;;;;;;;;;;26.37;67.06;96221.44;5085962;28;20248;-75
2023/06/22 07:36:48;;;;;;;;;;;;;;;26.32;67.84;96225.13;5086178;28;19943;-72
2023/06/22 07:39:14;;;;;;;;;;;;;;;26.36;71.36;96252.16;5086630;28;20117;-70
2023/06/22 07:41:40;;;;;;;;;;;;;;;26.36;70.10;96246.75;5086591;28;20089;-70
2023/06/22 07:44:06;;;;;;;;;;;;;;;26.51;71.04;96261.56;5086163;28;19939;-70
2023/06/22 07:46:32;;;;;;;;;;;;;;;26.68;69.16;96253.41;5086214;28;20122;-70
2023/06/22 07:48:59;;;;;;;;;;;;;;;26.78;69.29;96264.91;5086385;28;19941;-70
2023/06/22 07:51:25;;;;;;;;;;;;;;;26.79;70.21;96278.00;5085601;28;19940;-70
2023/06/22 07:53:51;;;;;;;;;;;;;;;26.95;67.66;96266.69;5084368;28;19938;-72
2023/06/22 07:56:20;;;;;;;;;;;;;;;27.00;65.74;96274.56;5084311;28;19936;-75
2023/06/22 07:58:46;;;;;;;;;;;;;;;27.04;68.08;96292.41;5085960;28;20100;-76
2023/06/22 08:01:12;;;;;;;;;;;;;;;27.02;67.30;96289.25;5084608;28;19937;-76
2023/06/22 08:03:39;;;;;;;;;;;;;;;27.00;67.45;96294.16;5085312;28;20013;-76
2023/06/22 08:06:05;;;;;;;;;;;;;;;26.82;68.41;96311.56;5085154;28;19955;-75
2023/06/22 08:08:31;;;;;;;;;;;;;;;26.70;68.17;96325.72;5085222;28;19949;-76
2023/06/22 08:10:57;;;;;;;;;;;;;;;26.62;68.68;96335.38;5085166;28;20123;-77
2023/06/22 08:13:23;;;;;;;;;;;;;;;26.66;68.67;96335.53;5085975;28;19940;-76
2023/06/22 08:15:49;;;;;;;;;;;;;;;26.67;68.08;96335.22;5085054;28;20136;-73
2023/06/22 08:18:16;;;;;;;;;;;;;;;26.59;68.96;96344.13;5085343;28;19936;-72
2023/06/22 08:20:42;;;;;;;;;;;;;;;26.48;68.09;96349.06;5084874;28;19979;-72
2023/06/22 08:23:08;;;;;;;;;;;;;;;26.29;68.91;96351.31;5083715;28;20238;-71
2023/06/22 08:25:34;;;;;;;;;;;;;;;26.14;68.39;96320.38;5085365;28;19981;-72
2023/06/22 08:28:00;;;;;;;;;;;;;;;26.08;69.46;96318.97;5084854;28;19940;-71
2023/06/22 08:30:26;;;;;;;;;;;;;;;26.09;70.91;96325.94;5085082;28;19953;-72
2023/06/22 08:32:53;;;;;;;;;;;;;;;26.12;71.25;96344.91;5085202;28;19953;-74
2023/06/22 08:35:20;;;;;;;;;;;;;;;26.00;69.27;96317.91;5084724;28;20136;-74
2023/06/22 08:37:52;;;;;;;;;;;;;;;25.99;70.77;96320.91;5100478;28;19938;-76
2023/06/22 08:40:19;;;;;;;;;;;;;;;25.97;70.79;96321.22;5084336;28;20134;-75
2023/06/22 08:42:46;;;;;;;;;;;;;;;26.06;71.01;96319.31;5084612;28;20100;-76
2023/06/22 08:45:12;;;;;;;;;;;;;;;26.40;71.51;96319.50;5084460;28;19956;-75
2023/06/22 08:47:39;;;;;;;;;;;;;;;26.77;69.58;96314.44;5084559;28;19936;-75
2023/06/22 08:50:08;;;;;;;;;;;;;;;26.82;69.27;96322.34;5084697;28;20117;-72
2023/06/22 08:52:34;;;;;;;;;;;;;;;26.85;68.50;96329.75;5084489;28;19939;-75
2023/06/22 08:55:00;;;;;;;;;;;;;;;26.84;68.28;96323.56;5084387;28;19947;-75
2023/06/22 08:57:26;;;;;;;;;;;;;;;26.91;66.63;96312.28;5084359;28;19936;-75
2023/06/22 08:59:52;;;;;;;;;;;;;;;27.11;68.38;96316.91;5084368;28;19947;-75
2023/06/22 09:02:19;;;;;;;;;;;;;;;27.24;67.16;96307.00;5084317;28;19940;-75
2023/06/22 09:04:49;;;;;;;;;;;;;;;27.37;66.12;96302.47;5085008;28;19958;-75
2023/06/22 09:07:22;;;;;;;;;;;;;;;27.48;65.74;96282.09;5085086;28;19944;-72
2023/06/22 09:09:48;;;;;;;;;;;;;;;27.56;64.92;96287.75;5083950;28;19944;-72
2023/06/22 09:12:14;;;;;;;;;;;;;;;27.51;64.66;96280.66;5083763;28;19949;-77
2023/06/22 09:14:40;;;;;;;;;;;;;;;27.59;64.70;96273.59;5084695;28;19941;-76
2023/06/22 09:17:06;;;;;;;;;;;;;;;27.64;64.32;96274.19;5084657;28;19967;-76
2023/06/22 09:19:32;;;;;;;;;;;;;;;27.70;65.08;96264.78;5083996;28;19958;-77
2023/06/22 09:22:00;;;;;;;;;;;;;;;27.77;63.46;96264.22;5083418;28;20532;-76
2023/06/22 09:24:25;;;;;;;;;;;;;;;27.85;63.50;96247.16;5084282;28;19940;-76
2023/06/22 09:26:51;;;;;;;;;;;;;;;27.89;63.79;96253.50;5084364;28;19934;-72
2023/06/22 09:29:17;;;;;;;;;;;;;;;27.84;62.27;96242.88;5084567;28;19946;-72
2023/06/22 09:31:44;;;;;;;;;;;;;;;27.83;64.20;96254.03;5084515;28;20125;-71
2023/06/22 09:34:09;;;;;;;;;;;;;;;27.89;62.90;96239.25;5084473;28;19979;-72
2023/06/22 09:36:36;;;;;;;;;;;;;;;27.94;63.61;96230.91;5084006;28;19977;-71
2023/06/22 09:39:05;;;;;;;;;;;;;;;28.01;63.72;96233.06;5083844;28;19941;-72
2023/06/22 09:41:31;;;;;;;;;;;;;;;28.19;63.81;96236.34;5083896;28;19948;-71
2023/06/22 09:43:57;;;;;;;;;;;;;;;28.16;61.95;96220.81;5083888;28;19966;-75
2023/06/22 09:46:26;;;;;;;;;;;;;;;28.27;62.40;96235.44;5084302;28;20007;-75
2023/06/22 09:48:52;;;;;;;;;;;;;;;28.40;61.85;96225.44;5083835;28;20263;-74
2023/06/22 09:51:19;;;;;;;;;;;;;;;28.38;61.47;96227.69;5083427;28;19940;-75
2023/06/22 09:53:45;;;;;;;;;;;;;;;28.29;63.34;96235.88;5083394;28;19942;-75
2023/06/22 09:56:14;;;;;;;;;;;;;;;28.29;62.44;96235.88;5083761;28;19942;-75
2023/06/22 09:58:42;;;;;;;;;;;;;;;28.36;63.95;96241.50;5084205;28;19948;-75
2023/06/22 10:01:08;;;;;;;;;;;;;;;28.47;62.81;96242.59;5084222;28;20228;-75
2023/06/22 10:03:34;;;;;;;;;;;;;;;28.41;62.18;96240.47;5084245;28;19944;-73
2023/06/22 10:06:00;;;;;;;;;;;;;;;28.47;62.16;96241.81;5082496;28;19955;-75
2023/06/22 10:08:25;;;;;;;;;;;;;;;28.62;63.68;96238.47;5083663;28;19938;-74
2023/06/22 10:10:51;;;;;;;;;;;;;;;28.86;60.96;96218.72;5083251;28;19941;-75
2023/06/22 10:13:18;;;;;;;;;;;;;;;29.03;62.19;96225.75;5083595;28;19934;-75
2023/06/22 10:15:49;;;;;;;;;;;;;;;29.20;63.65;96232.81;5084368;28;19976;-75
2023/06/22 10:18:16;;;;;;;;;;;;;;;29.36;60.83;96219.34;5083852;28;19948;-75
2023/06/22 10:20:42;;;;;;;;;;;;;;;29.45;58.76;96211.09;5083523;28;19978;-72
2023/06/22 10:23:08;;;;;;;;;;;;;;;29.62;60.73;96218.09;5082383;28;19958;-76
2023/06/22 10:25:34;;;;;;;;;;;;;;;29.70;59.84;96220.66;5086909;28;19966;-72
2023/06/22 10:28:00;;;;;;;;;;;;;;;29.74;58.27;96212.63;5087587;28;19938;-71
2023/06/22 10:30:26;;;;;;;;;;;;;;;29.82;58.90;96213.59;5087136;28;19940;-71
2023/06/22 10:32:51;;;;;;;;;;;;;;;29.93;59.38;96215.44;5087163;28;20025;-71
2023/06/22 10:35:17;;;;;;;;;;;;;;;30.00;55.31;96195.88;5087557;28;20135;-71
2023/06/22 10:37:44;;;;;;;;;;;;;;;30.11;57.15;96209.66;5086944;28;19982;-71
2023/06/22 10:40:10;;;;;;;;;;;;;;;30.18;53.27;96190.91;5087729;28;19997;-74
2023/06/22 10:42:36;;;;;;;;;;;;;;;30.15;59.13;96221.34;5086906;28;19947;-75
2023/06/22 10:45:02;;;;;;;;;;;;;;;30.14;56.41;96215.16;5087032;28;19955;-75
2023/06/22 10:47:28;;;;;;;;;;;;;;;30.28;57.50;96208.50;5087554;28;19937;-76
2023/06/22 10:49:54;;;;;;;;;;;;;;;30.41;58.00;96220.03;5086730;28;19941;-76
2023/06/22 10:52:20;;;;;;;;;;;;;;;30.40;56.90;96216.53;5085587;28;19942;-75
2023/06/22 10:54:45;;;;;;;;;;;;;;;30.40;57.80;96221.16;5086674;28;19939;-75
2023/06/22 10:57:11;;;;;;;;;;;;;;;30.44;58.22;96219.31;5086645;28;19940;-75
2023/06/22 10:59:37;;;;;;;;;;;;;;;30.50;57.48;96216.00;5103265;28;19967;-73
2023/06/22 11:02:03;;;;;;;;;;;;;;;30.51;59.23;96211.34;5086158;28;20212;-71
2023/06/22 11:04:29;;;;;;;;;;;;;;;30.42;57.54;96219.66;5086546;28;19950;-71
2023/06/22 11:06:56;;;;;;;;;;;;;;;30.36;57.42;96215.66;5086386;28;19970;-72
2023/06/22 11:09:22;;;;;;;;;;;;;;;30.34;59.24;96217.94;5087260;28;19947;-71
2023/06/22 11:11:50;;;;;;;;;;;;;;;30.28;57.33;96198.47;5086383;28;19965;-72
2023/06/22 11:14:16;;;;;;;;;;;;;;;30.32;59.56;96201.28;5085955;28;19948;-72
2023/06/22 11:16:41;;;;;;;;;;;;;;;30.47;58.83;96200.47;5085886;28;20013;-76
2023/06/22 11:19:07;;;;;;;;;;;;;;;30.64;59.08;96199.28;5102066;28;19935;-75
2023/06/22 11:21:33;;;;;;;;;;;;;;;30.71;59.03;96207.53;5086051;28;19977;-74
2023/06/22 11:23:59;;;;;;;;;;;;;;;30.75;58.29;96207.63;5086917;28;19949;-74
2023/06/22 11:26:29;;;;;;;;;;;;;;;30.79;57.65;96196.88;5086013;28;19963;-74
2023/06/22 11:28:55;;;;;;;;;;;;;;;30.81;58.05;96195.38;5085564;28;19941;-74
2023/06/22 11:31:21;;;;;;;;;;;;;;;30.70;57.26;96181.63;5084853;28;19949;-75
2023/06/22 11:33:47;;;;;;;;;;;;;;;30.64;56.17;96179.53;5085958;28;20158;-76
2023/06/22 11:36:14;;;;;;;;;;;;;;;30.54;57.34;96197.13;5084520;28;19953;-77
2023/06/22 11:38:40;;;;;;;;;;;;;;;30.44;57.01;96195.75;5085848;28;20122;-72
2023/06/22 11:41:06;;;;;;;;;;;;;;;30.31;55.97;96210.53;5085561;28;19943;-72
2023/06/22 11:43:32;;;;;;;;;;;;;;;30.18;58.17;96228.78;5086191;28;19942;-72
2023/06/22 11:45:58;;;;;;;;;;;;;;;30.05;58.88;96235.38;5086073;28;19964;-73
2023/06/22 11:48:24;;;;;;;;;;;;;;;29.94;58.67;96241.34;5086399;28;20016;-72
2023/06/22 11:50:50;;;;;;;;;;;;;;;29.88;59.33;96234.63;5085578;28;19934;-72
2023/06/22 11:53:18;;;;;;;;;;;;;;;29.77;58.64;96236.25;5086032;28;19946;-73
2023/06/22 11:55:45;;;;;;;;;;;;;;;29.64;58.79;96234.75;5085429;28;19946;-72
2023/06/22 11:58:11;;;;;;;;;;;;;;;29.54;58.82;96244.13;5101698;28;19944;-72
2023/06/22 12:00:37;;;;;;;;;;;;;;;29.43;60.04;96238.44;5101227;28;20257;-72
2023/06/22 12:03:03;;;;;;;;;;;;;;;29.43;59.49;96199.84;5101044;28;20250;-72
2023/06/22 12:05:29;;;;;;;;;;;;;;;29.47;60.29;96214.25;5085466;28;19962;-72
2023/06/22 12:07:55;;;;;;;;;;;;;;;29.48;59.77;96216.59;5085154;28;19975;-72
2023/06/22 12:10:21;;;;;;;;;;;;;;;29.40;59.94;96235.63;5085614;28;20012;-72
2023/06/22 12:12:47;;;;;;;;;;;;;;;29.27;60.55;96259.22;5085629;28;19939;-72
2023/06/22 12:15:13;;;;;;;;;;;;;;;29.15;59.88;96257.38;5084631;28;19936;-72
2023/06/22 12:17:39;;;;;;;;;;;;;;;29.03;60.10;96260.84;5085042;28;19938;-72
2023/06/22 12:20:06;;;;;;;;;;;;;;;28.95;60.73;96267.19;5084127;28;19990;-73
2023/06/22 12:22:32;;;;;;;;;;;;;;;28.88;61.01;96267.75;5083763;28;19949;-72
2023/06/22 12:24:58;;;;;;;;;;;;;;;28.85;60.46;96263.06;5085555;28;19941;-72
2023/06/22 12:27:24;;;;;;;;;;;;;;;28.87;62.25;96268.09;5085413;28;19942;-72
2023/06/22 12:29:50;;;;;;;;;;;;;;;28.90;62.07;96260.09;5084979;28;19934;-73
2023/06/22 12:32:16;;;;;;;;;;;;;;;28.94;62.24;96271.78;5084721;28;19952;-76
2023/06/22 12:34:42;;;;;;;;;;;;;;;28.96;62.28;96263.38;5084755;28;20154;-76
2023/06/22 12:37:08;;;;;;;;;;;;;;;28.91;61.16;96266.28;5085400;28;19941;-76
2023/06/22 12:39:34;;;;;;;;;;;;;;;28.77;61.08;96285.56;5085202;28;20023;-76